Tempos de volta de RENTAL PROVA 2 - 11:30
KARTODROMO INTERNACIONAL GRANJA VIANA a funcionar KGV RACE TRACKS CIRCUITO - 101
Tempos de volta de RENTAL - PROVA 2 - 11:30


Hora do dia Volta Volta do Líder Volta Tm Velocidade
013 - CAIO DARDI - RENTAL
11:46:30.328 1 1 58.506 62,455
11:47:28.553 2 2 58.225 62,757
11:48:27.126 3 3 58.573 62,384
11:49:25.330 4 4 58.204 62,779
11:50:23.567 5 5 58.237 62,744
11:51:21.974 6 6 58.407 62,561
11:52:20.284 7 7 58.310 62,665
11:53:18.593 8 8 58.309 62,666
11:54:16.861 9 9 58.268 62,710
11:55:15.367 10 10 58.506 62,455
11:56:13.563 11 11 58.196 62,788
11:57:11.795 12 12 58.232 62,749
11:58:09.991 13 13 58.196 62,788
11:59:08.229 14 14 58.238 62,743
12:00:06.519 15 15 58.290 62,687
12:01:04.707 16 16 58.188 62,796
12:02:02.880 17 17 58.173 62,813
12:03:01.404 18 18 58.524 62,436
012 - RAFAEL HIGA - RENTAL
11:46:38.144 1 1 1:00.203 60,695
11:47:36.656 2 2 58.512 62,449
11:48:35.142 3 3 58.486 62,476
11:49:33.368 4 4 58.226 62,755
11:50:31.723 5 5 58.355 62,617
11:51:30.553 6 6 58.830 62,111
11:52:29.224 7 7 58.671 62,279
11:53:27.326 8 8 58.102 62,889
11:54:26.298 9 9 58.972 61,962
11:55:25.059 10 10 58.761 62,184
11:56:24.177 11 11 59.118 61,809
11:57:23.059 12 12 58.882 62,056
11:58:21.476 13 13 58.417 62,550
11:59:20.046 14 14 58.570 62,387
12:00:18.738 15 15 58.692 62,257
12:01:17.055 16 16 58.317 62,658
12:02:16.178 17 17 59.123 61,803
12:03:14.695 18 18 58.517 62,443
037 - RICARDO DA VEIGA CESAR - RENTAL
11:46:33.499 1 1 1:00.383 60,514
11:47:32.130 2 2 58.631 62,322
11:48:31.329 3 3 59.199 61,724
11:49:30.162 4 4 58.833 62,108
11:50:29.007 5 5 58.845 62,095
11:51:27.949 6 6 58.942 61,993
11:52:26.980 7 7 59.031 61,900
11:53:25.651 8 8 58.671 62,279
11:54:24.703 9 9 59.052 61,878
11:55:23.209 10 10 58.506 62,455
11:56:23.132 11 11 59.923 60,978
11:57:23.187 12 12 1:00.055 60,844
11:58:22.098 13 13 58.911 62,026
11:59:20.739 14 14 58.641 62,311
12:00:19.488 15 15 58.749 62,197
12:01:18.153 16 16 58.665 62,286
12:02:16.912 17 17 58.759 62,186
12:03:15.639 18 18 58.727 62,220
053 - TIAGO JOSE NICOLAU DOS SANTOS - RENTAL
11:46:32.973 1 1 59.575 61,334
11:47:32.260 2 2 59.287 61,632
11:48:31.459 3 3 59.199 61,724
11:49:31.665 4 4 1:00.206 60,692
11:50:30.608 5 5 58.943 61,992
11:51:29.154 6 6 58.546 62,412
11:52:27.846 7 7 58.692 62,257
11:53:26.541 8 8 58.695 62,254
11:54:26.102 9 9 59.561 61,349
11:55:24.771 10 10 58.669 62,282
11:56:24.925 11 11 1:00.154 60,744
11:57:24.401 12 12 59.476 61,437
11:58:23.347 13 13 58.946 61,989
11:59:22.144 14 14 58.797 62,146
12:00:20.950 15 15 58.806 62,137
12:01:19.992 16 16 59.042 61,888
12:02:18.864 17 17 58.872 62,067
12:03:17.888 18 18 59.024 61,907
003 - LEANDRO VIEIRA - RENTAL
11:46:33.620 1 1 1:00.410 60,487
11:47:32.496 2 2 58.876 62,063
11:48:31.652 3 3 59.156 61,769
11:49:30.766 4 4 59.114 61,813
11:50:29.695 5 5 58.929 62,007
11:51:28.638 6 6 58.943 61,992
11:52:27.229 7 7 58.591 62,365
11:53:26.355 8 8 59.126 61,800
11:54:26.577 9 9 1:00.222 60,676
11:55:25.505 10 10 58.928 62,008
11:56:24.679 11 11 59.174 61,750
11:57:24.340 12 12 59.661 61,246
11:58:23.869 13 13 59.529 61,382
11:59:22.524 14 14 58.655 62,296
12:00:21.182 15 15 58.658 62,293
12:01:20.423 16 16 59.241 61,680
12:02:19.235 17 17 58.812 62,130
12:03:18.035 18 18 58.800 62,143
028 - PEDRO ARMANDO - RENTAL
11:46:32.640 1 1 58.834 62,107
11:47:31.698 2 2 59.058 61,871
11:48:29.950 3 3 58.252 62,727
11:49:28.242 4 4 58.292 62,684
11:50:26.689 5 5 58.447 62,518
11:51:24.963 6 6 58.274 62,704
11:52:23.213 7 7 58.250 62,730
11:53:22.773 8 8 59.560 61,350
11:54:22.978 9 9 1:00.205 60,693
11:55:21.265 10 10 58.287 62,690
11:56:23.495 11 11 1:02.230 58,718
11:57:22.619 12 12 59.124 61,802
11:58:25.811 13 13 1:03.192 57,824
11:59:23.685 14 14 57.874 63,137
12:00:21.455 15 15 57.770 63,251
12:01:23.644 16 16 1:02.189 58,756
12:02:23.292 17 17 59.648 61,259
12:03:21.755 18 18 58.463 62,501
034 - MARCELO DE ANDRADE EVANGELISTA - RENTAL
11:46:39.425 1 1 59.872 61,030
11:47:38.476 2 2 59.051 61,879
11:48:38.224 3 3 59.748 61,157
11:49:37.841 4 4 59.617 61,291
11:50:36.328 5 5 58.487 62,475
11:51:35.449 6 6 59.121 61,805
11:52:35.163 7 7 59.714 61,192
11:53:35.000 8 8 59.837 61,066
11:54:34.265 9 9 59.265 61,655
11:55:33.257 10 10 58.992 61,941
11:56:31.829 11 11 58.572 62,385
11:57:30.508 12 12 58.679 62,271
11:58:29.294 13 13 58.786 62,158
11:59:28.558 14 14 59.264 61,656
12:00:26.902 15 15 58.344 62,629
12:01:25.632 16 16 58.730 62,217
12:02:24.314 17 17 58.682 62,268
12:03:23.120 18 18 58.806 62,137
036 - LUCAS DARDI - RENTAL
11:46:34.993 1 1 59.305 61,614
11:47:34.202 2 2 59.209 61,714
11:48:33.649 3 3 59.447 61,467
11:49:32.587 4 4 58.938 61,997
11:50:31.533 5 5 58.946 61,989
11:51:30.882 6 6 59.349 61,568
11:52:30.540 7 7 59.658 61,249
11:53:29.553 8 8 59.013 61,919
11:54:28.268 9 9 58.715 62,233
11:55:27.365 10 10 59.097 61,831
11:56:27.547 11 11 1:00.182 60,716
11:57:26.676 12 12 59.129 61,797
11:58:26.223 13 13 59.547 61,363
11:59:25.932 14 14 59.709 61,197
12:00:25.011 15 15 59.079 61,849
12:01:24.136 16 16 59.125 61,801
12:02:23.818 17 17 59.682 61,224
12:03:23.610 18 18 59.792 61,112
027 - RAFAEL EVANGELISTA - RENTAL
11:46:38.984 1 1 1:00.453 60,444
11:47:39.000 2 2 1:00.016 60,884
11:48:38.135 3 3 59.135 61,791
11:49:38.122 4 4 59.987 60,913
11:50:36.861 5 5 58.739 62,207
11:51:35.723 6 6 58.862 62,077
11:52:35.692 7 7 59.969 60,931
11:53:35.819 8 8 1:00.127 60,771
11:54:35.119 9 9 59.300 61,619
11:55:34.269 10 10 59.150 61,775
11:56:33.490 11 11 59.221 61,701
11:57:32.935 12 12 59.445 61,469
11:58:31.542 13 13 58.607 62,348
11:59:30.450 14 14 58.908 62,029
12:00:29.288 15 15 58.838 62,103
12:01:28.702 16 16 59.414 61,501
12:02:27.741 17 17 59.039 61,891
12:03:26.869 18 18 59.128 61,798
042 - JOSE NICOLAU LUIZ - RENTAL
11:46:35.588 1 1 59.747 61,158
11:47:34.842 2 2 59.254 61,667
11:48:34.413 3 3 59.571 61,339
11:49:33.305 4 4 58.892 62,046
11:50:33.172 5 5 59.867 61,035
11:51:33.015 6 6 59.843 61,060
11:52:32.380 7 7 59.365 61,551
11:53:32.199 8 8 59.819 61,084
11:54:31.643 9 9 59.444 61,470
11:55:31.102 10 10 59.459 61,454
11:56:30.759 11 11 59.657 61,250
11:57:30.688 12 12 59.929 60,972
11:58:30.197 13 13 59.509 61,402
11:59:29.746 14 14 59.549 61,361
12:00:28.919 15 15 59.173 61,751
12:01:28.261 16 16 59.342 61,575
12:02:27.980 17 17 59.719 61,187
12:03:27.466 18 18 59.486 61,426
026 - DEWANDRE HUGO MACEDO - RENTAL
11:46:36.128 1 1 59.662 61,245
11:47:36.141 2 2 1:00.013 60,887
11:48:35.673 3 3 59.532 61,379
11:49:35.020 4 4 59.347 61,570
11:50:35.057 5 5 1:00.037 60,862
11:51:34.739 6 6 59.682 61,224
11:52:35.034 7 7 1:00.295 60,602
11:53:35.031 8 8 59.997 60,903
11:54:35.718 9 9 1:00.687 60,211
11:55:34.763 10 10 59.045 61,885
11:56:34.208 11 11 59.445 61,469
11:57:34.487 12 12 1:00.279 60,618
11:58:33.812 13 13 59.325 61,593
11:59:33.269 14 14 59.457 61,456
12:00:33.047 15 15 59.778 61,126
12:01:32.583 16 16 59.536 61,375
12:02:31.639 17 17 59.056 61,873
12:03:30.992 18 18 59.353 61,564
031 - FERNANDO DE MATTOS LOPES DA SI - RENTAL
11:46:40.739 1 1 1:00.970 59,931
11:47:40.831 2 2 1:00.092 60,807
11:48:41.345 3 3 1:00.514 60,383
11:49:41.031 4 4 59.686 61,220
11:50:41.289 5 5 1:00.258 60,639
11:51:40.962 6 6 59.673 61,234
11:52:40.299 7 7 59.337 61,580
11:53:40.185 8 8 59.886 61,016
11:54:39.911 9 9 59.726 61,179
11:55:39.529 10 10 59.618 61,290
11:56:39.246 11 11 59.717 61,189
11:57:38.423 12 12 59.177 61,747
11:58:37.805 13 13 59.382 61,534
11:59:37.064 14 14 59.259 61,662
12:00:36.424 15 15 59.360 61,557
12:01:35.587 16 16 59.163 61,762
12:02:34.388 17 17 58.801 62,142
12:03:33.621 18 18 59.233 61,689
050 - RODRIGO VIEIRA - RENTAL
11:46:50.305 1 1 59.070 61,859
11:47:49.622 2 2 59.317 61,601
11:48:48.448 3 3 58.826 62,115
11:49:47.755 4 4 59.307 61,612
11:50:46.716 5 5 58.961 61,973
11:51:45.995 6 6 59.279 61,641
11:52:44.988 7 7 58.993 61,940
11:53:43.938 8 8 58.950 61,985
11:54:43.215 9 9 59.277 61,643
11:55:41.982 10 10 58.767 62,178
11:56:41.215 11 11 59.233 61,689
11:57:40.373 12 12 59.158 61,767
11:58:39.352 13 13 58.979 61,954
11:59:38.591 14 14 59.239 61,682
12:00:37.379 15 15 58.788 62,156
12:01:36.271 16 16 58.892 62,046
12:02:34.961 17 17 58.690 62,259
12:03:34.231 18 18 59.270 61,650
023 - WAGNER BOTELHO PARALTA - RENTAL
11:46:36.594 1 1 1:00.349 60,548
11:47:37.907 2 2 1:01.313 59,596
11:48:37.969 3 3 1:00.062 60,837
11:49:38.601 4 4 1:00.632 60,265
11:50:37.676 5 5 59.075 61,854
11:51:37.170 6 6 59.494 61,418
11:52:38.686 7 7 1:01.516 59,399
11:53:38.598 8 8 59.912 60,989
11:54:38.840 9 9 1:00.242 60,655
11:55:38.487 10 10 59.647 61,260
11:56:39.020 11 11 1:00.533 60,364
11:57:39.025 12 12 1:00.005 60,895
11:58:38.801 13 13 59.776 61,128
11:59:38.931 14 14 1:00.130 60,768
12:00:38.265 15 15 59.334 61,584
12:01:37.696 16 16 59.431 61,483
12:02:37.418 17 17 59.722 61,183
12:03:37.131 18 18 59.713 61,193
051 - HENRIQUE DE OLIVEIRA CASTRO - RENTAL
11:46:31.448 1 1 58.955 61,979
11:47:30.254 2 2 58.806 62,137
11:48:28.994 3 3 58.740 62,206
11:49:27.430 4 4 58.436 62,530
11:50:25.548 5 5 58.118 62,872
11:51:24.151 6 6 58.603 62,352
11:52:22.869 7 7 58.718 62,230
11:53:22.445 8 8 59.576 61,333
11:54:22.630 9 9 1:00.185 60,713
11:55:21.071 10 10 58.441 62,525
11:56:54.840 11 11 1:33.769 38,968
11:57:53.993 12 12 59.153 61,772
11:58:53.087 13 13 59.094 61,834
11:59:52.099 14 14 59.012 61,920
12:00:51.264 15 15 59.165 61,759
12:01:49.626 16 16 58.362 62,609
12:02:48.589 17 17 58.963 61,971
12:03:48.419 18 18 59.830 61,073
015 - ANGELO LOURENZON - RENTAL
11:46:38.195 1 1 1:01.272 59,636
11:47:39.905 2 2 1:01.710 59,212
11:48:40.164 3 3 1:00.259 60,638
11:49:40.424 4 4 1:00.260 60,637
11:50:41.476 5 5 1:01.052 59,851
11:51:41.899 6 6 1:00.423 60,474
11:52:42.003 7 7 1:00.104 60,795
11:53:42.830 8 8 1:00.827 60,072
11:54:43.658 9 9 1:00.828 60,071
11:55:43.747 10 10 1:00.089 60,810
11:56:43.964 11 11 1:00.217 60,681
11:57:44.551 12 12 1:00.587 60,310
11:58:45.895 13 13 1:01.344 59,566
11:59:47.490 14 14 1:01.595 59,323
12:00:47.952 15 15 1:00.462 60,435
12:01:48.001 16 16 1:00.049 60,850
12:02:48.640 17 17 1:00.639 60,258
12:03:49.142 18 18 1:00.502 60,395
004 - REINALDO QUEIROZ - RENTAL
11:46:39.486 1 1 1:02.365 58,591
11:47:39.704 2 2 1:00.218 60,680
11:48:40.093 3 3 1:00.389 60,508
11:49:40.398 4 4 1:00.305 60,592
11:50:40.398 5 5 1:00.000 60,900
11:51:40.959 6 6 1:00.561 60,336
11:52:41.742 7 7 1:00.783 60,115
11:53:41.661 8 8 59.919 60,982
11:54:42.070 9 9 1:00.409 60,488
11:55:42.669 10 10 1:00.599 60,298
11:56:44.657 11 11 1:01.988 58,947
11:57:45.069 12 12 1:00.412 60,485
11:58:46.174 13 13 1:01.105 59,799
11:59:47.021 14 14 1:00.847 60,052
12:00:47.837 15 15 1:00.816 60,083
12:01:48.865 16 16 1:01.028 59,874
12:02:49.954 17 17 1:01.089 59,814
12:03:51.043 18 18 1:01.089 59,814
030 - LUIZ ANTONIO DE OLIVEIRA CASTR - RENTAL
11:46:43.727 1 1 1:04.201 56,915
11:47:48.164 2 2 1:04.437 56,707
11:48:52.263 3 3 1:04.099 57,006
11:49:55.331 4 4 1:03.068 57,937
11:50:59.541 5 5 1:04.210 56,907
11:52:03.048 6 6 1:03.507 57,537
11:53:07.444 7 7 1:04.396 56,743
11:54:11.986 8 8 1:04.542 56,614
11:55:15.908 9 10 1:03.922 57,163
11:56:19.537 10 11 1:03.629 57,427
11:57:24.779 11 12 1:05.242 56,007
11:58:28.113 12 13 1:03.334 57,694
11:59:33.063 13 14 1:04.950 56,259
12:00:36.240 14 15 1:03.177 57,838
12:01:40.223 15 16 1:03.983 57,109
12:02:43.961 16 17 1:03.738 57,328
12:03:47.759 17 18 1:03.798 57,275
021 - MATHEUS AUGUSTO - RENTAL
11:47:04.169 1 1 1:08.299 53,500
11:48:09.814 2 2 1:05.645 55,663
11:49:13.951 3 3 1:04.137 56,972
11:50:19.299 4 4 1:05.348 55,916
11:51:28.018 5 6 1:08.719 53,173
11:52:38.627 6 7 1:10.609 51,750
11:53:44.379 7 8 1:05.752 55,572
11:54:51.145 8 9 1:06.766 54,728
11:55:56.965 9 10 1:05.820 55,515
11:57:01.370 10 11 1:04.405 56,735
11:58:05.641 11 12 1:04.271 56,853
11:59:08.948 12 14 1:03.307 57,719
12:00:10.988 13 15 1:02.040 58,897
12:01:15.765 14 16 1:04.777 56,409
12:02:25.976 15 17 1:10.211 52,043
12:03:30.647 16 18 1:04.671 56,501
005 - CRISTIAN PETICOV - RENTAL
11:47:04.037 1 1 1:08.803 53,108
11:48:09.920 2 2 1:05.883 55,462
11:49:14.063 3 3 1:04.143 56,966
11:50:19.052 4 4 1:04.989 56,225
11:51:28.922 5 6 1:09.870 52,297
11:52:38.813 6 7 1:09.891 52,281
11:53:44.484 7 8 1:05.671 55,641
11:54:50.785 8 9 1:06.301 55,112
11:55:57.176 9 10 1:06.391 55,038
11:57:01.313 10 11 1:04.137 56,972
11:58:05.744 11 12 1:04.431 56,712
11:59:09.126 12 14 1:03.382 57,650
12:00:11.103 13 15 1:01.977 58,957
12:01:17.485 14 16 1:06.382 55,045
12:02:26.077 15 17 1:08.592 53,272
12:03:30.661 16 18 1:04.584 56,577
018 - RAFAEL RODRIGO DA SILVA - RENTAL
11:46:40.063 1 1 1:02.322 58,631
11:47:40.765 2 2 1:00.702 60,196
11:48:42.967 3 3 1:02.202 58,744
11:49:44.439 4 4 1:01.472 59,442
11:50:47.474 5 5 1:03.035 57,968
11:51:48.657 6 6 1:01.183 59,722
11:52:50.416 7 7 1:01.759 59,165
11:53:52.348 8 8 1:01.932 59,000
11:54:53.730 9 9 1:01.382 59,529
11:57:10.675 10 11 2:16.945 26,682
11:58:14.309 11 13 1:03.634 57,422
11:59:17.411 12 14 1:03.102 57,906
12:00:23.582 13 15 1:06.171 55,221
12:01:27.628 14 16 1:04.046 57,053
12:02:32.256 15 17 1:04.628 56,539
12:03:35.517 16 18 1:03.261 57,761
020 - BRUNO ALEXANDRE POSKUS - RENTAL
11:46:36.902 1 1 1:00.540 60,357
11:47:37.620 2 2 1:00.718 60,180
11:48:44.987 3 3 1:07.367 54,240
11:49:44.934 4 4 59.947 60,954
11:50:46.075 5 5 1:01.141 59,763
11:51:46.313 6 6 1:00.238 60,659
11:52:46.125 7 7 59.812 61,091
11:53:47.209 8 8 1:01.084 59,819
11:54:47.026 9 9 59.817 61,086
11:55:55.223 10 10 1:08.197 53,580
11:56:55.566 11 11 1:00.343 60,554
11:57:55.639 12 12 1:00.073 60,826
12:02:46.120 13 17 4:50.481 12,579
12:03:49.899 14 18 1:03.779 57,292
Gerada em 07/09/2020 12:32